sensor_id;sensor_type;location;lat;lon;timestamp;P1;durP1;ratioP1;P2;durP2;ratioP2
23317;SDS011;11831;55.918;37.746;2023-05-19T00:00:56;3.92;;;1.23;;
23317;SDS011;11831;55.918;37.746;2023-05-19T00:03:23;1.55;;;1.33;;
23317;SDS011;11831;55.918;37.746;2023-05-19T00:05:51;1.95;;;1.15;;
23317;SDS011;11831;55.918;37.746;2023-05-19T00:08:18;1.30;;;1.20;;
23317;SDS011;11831;55.918;37.746;2023-05-19T00:10:47;1.58;;;1.05;;
23317;SDS011;11831;55.918;37.746;2023-05-19T00:13:14;1.30;;;1.20;;
23317;SDS011;11831;55.918;37.746;2023-05-19T00:15:40;2.10;;;1.10;;
23317;SDS011;11831;55.918;37.746;2023-05-19T00:18:07;1.00;;;1.00;;
23317;SDS011;11831;55.918;37.746;2023-05-19T00:20:33;5.00;;;1.42;;
23317;SDS011;11831;55.918;37.746;2023-05-19T00:23:00;1.45;;;1.10;;
23317;SDS011;11831;55.918;37.746;2023-05-19T00:25:26;1.30;;;1.20;;
23317;SDS011;11831;55.918;37.746;2023-05-19T00:27:52;1.10;;;1.00;;
23317;SDS011;11831;55.918;37.746;2023-05-19T00:30:19;1.23;;;1.10;;
23317;SDS011;11831;55.918;37.746;2023-05-19T00:32:47;1.05;;;0.90;;
23317;SDS011;11831;55.918;37.746;2023-05-19T00:35:13;1.55;;;1.20;;
23317;SDS011;11831;55.918;37.746;2023-05-19T00:37:40;1.10;;;0.73;;
23317;SDS011;11831;55.918;37.746;2023-05-19T00:40:08;1.40;;;1.00;;
23317;SDS011;11831;55.918;37.746;2023-05-19T00:42:35;1.15;;;1.05;;
23317;SDS011;11831;55.918;37.746;2023-05-19T00:45:02;1.48;;;1.00;;
23317;SDS011;11831;55.918;37.746;2023-05-19T00:47:29;2.00;;;1.42;;
23317;SDS011;11831;55.918;37.746;2023-05-19T00:49:56;1.42;;;1.17;;
23317;SDS011;11831;55.918;37.746;2023-05-19T00:52:22;1.10;;;0.90;;
23317;SDS011;11831;55.918;37.746;2023-05-19T00:54:48;1.35;;;1.10;;
23317;SDS011;11831;55.918;37.746;2023-05-19T00:57:16;1.73;;;1.05;;
23317;SDS011;11831;55.918;37.746;2023-05-19T00:59:42;1.15;;;0.98;;
23317;SDS011;11831;55.918;37.746;2023-05-19T01:02:09;1.10;;;1.00;;
23317;SDS011;11831;55.918;37.746;2023-05-19T01:04:35;1.00;;;1.00;;
23317;SDS011;11831;55.918;37.746;2023-05-19T01:07:04;3.03;;;1.12;;
23317;SDS011;11831;55.918;37.746;2023-05-19T01:09:31;1.40;;;1.30;;
23317;SDS011;11831;55.918;37.746;2023-05-19T01:11:58;1.50;;;1.40;;
23317;SDS011;11831;55.918;37.746;2023-05-19T01:14:27;1.55;;;1.45;;
23317;SDS011;11831;55.918;37.746;2023-05-19T01:17:15;1.60;;;1.50;;
23317;SDS011;11831;55.918;37.746;2023-05-19T01:22:44;4.25;;;1.85;;
23317;SDS011;11831;55.918;37.746;2023-05-19T01:28:41;2.12;;;1.80;;
23317;SDS011;11831;55.918;37.746;2023-05-19T01:31:31;4.03;;;2.42;;
23317;SDS011;11831;55.918;37.746;2023-05-19T01:34:00;4.37;;;2.67;;
23317;SDS011;11831;55.918;37.746;2023-05-19T01:36:29;3.97;;;2.80;;
23317;SDS011;11831;55.918;37.746;2023-05-19T01:38:58;3.22;;;2.78;;
23317;SDS011;11831;55.918;37.746;2023-05-19T01:41:26;3.20;;;2.90;;
23317;SDS011;11831;55.918;37.746;2023-05-19T01:43:57;2.85;;;2.65;;
23317;SDS011;11831;55.918;37.746;2023-05-19T01:46:27;3.60;;;2.80;;
23317;SDS011;11831;55.918;37.746;2023-05-19T01:48:53;6.25;;;2.83;;
23317;SDS011;11831;55.918;37.746;2023-05-19T01:51:21;3.03;;;2.37;;
23317;SDS011;11831;55.918;37.746;2023-05-19T01:53:47;5.87;;;3.30;;
23317;SDS011;11831;55.918;37.746;2023-05-19T01:56:16;3.55;;;2.78;;
23317;SDS011;11831;55.918;37.746;2023-05-19T01:58:52;4.10;;;2.90;;
23317;SDS011;11831;55.918;37.746;2023-05-19T02:07:11;4.93;;;3.12;;
23317;SDS011;11831;55.918;37.746;2023-05-19T02:12:32;4.57;;;3.10;;
23317;SDS011;11831;55.918;37.746;2023-05-19T02:15:16;3.30;;;3.00;;
23317;SDS011;11831;55.918;37.746;2023-05-19T02:17:45;3.40;;;3.10;;
23317;SDS011;11831;55.918;37.746;2023-05-19T02:20:35;4.05;;;2.90;;
23317;SDS011;11831;55.918;37.746;2023-05-19T02:23:01;5.30;;;3.05;;
23317;SDS011;11831;55.918;37.746;2023-05-19T02:25:28;5.68;;;3.20;;
23317;SDS011;11831;55.918;37.746;2023-05-19T02:27:54;5.78;;;3.15;;
23317;SDS011;11831;55.918;37.746;2023-05-19T02:30:20;3.45;;;2.87;;
23317;SDS011;11831;55.918;37.746;2023-05-19T02:32:47;4.45;;;3.42;;
23317;SDS011;11831;55.918;37.746;2023-05-19T02:35:13;4.70;;;3.35;;
23317;SDS011;11831;55.918;37.746;2023-05-19T02:37:40;4.85;;;3.42;;
23317;SDS011;11831;55.918;37.746;2023-05-19T02:40:07;4.25;;;3.17;;
23317;SDS011;11831;55.918;37.746;2023-05-19T02:42:33;5.95;;;3.65;;
23317;SDS011;11831;55.918;37.746;2023-05-19T02:45:00;4.50;;;3.15;;
23317;SDS011;11831;55.918;37.746;2023-05-19T02:47:26;6.87;;;3.85;;
23317;SDS011;11831;55.918;37.746;2023-05-19T02:49:53;4.22;;;3.35;;
23317;SDS011;11831;55.918;37.746;2023-05-19T02:52:19;5.50;;;4.00;;
23317;SDS011;11831;55.918;37.746;2023-05-19T02:54:45;5.20;;;4.25;;
23317;SDS011;11831;55.918;37.746;2023-05-19T02:57:12;4.72;;;3.42;;
23317;SDS011;11831;55.918;37.746;2023-05-19T02:59:38;6.00;;;3.45;;
23317;SDS011;11831;55.918;37.746;2023-05-19T03:02:04;5.78;;;3.95;;
23317;SDS011;11831;55.918;37.746;2023-05-19T03:04:31;3.67;;;3.25;;
23317;SDS011;11831;55.918;37.746;2023-05-19T03:06:57;4.93;;;3.20;;
23317;SDS011;11831;55.918;37.746;2023-05-19T03:09:23;7.62;;;3.47;;
23317;SDS011;11831;55.918;37.746;2023-05-19T03:11:50;5.87;;;3.83;;
23317;SDS011;11831;55.918;37.746;2023-05-19T03:14:16;6.53;;;3.78;;
23317;SDS011;11831;55.918;37.746;2023-05-19T03:16:43;5.85;;;3.80;;
23317;SDS011;11831;55.918;37.746;2023-05-19T03:19:09;5.82;;;3.50;;
23317;SDS011;11831;55.918;37.746;2023-05-19T03:21:36;7.62;;;3.95;;
23317;SDS011;11831;55.918;37.746;2023-05-19T03:24:02;6.35;;;3.90;;
23317;SDS011;11831;55.918;37.746;2023-05-19T03:26:29;6.43;;;3.95;;
23317;SDS011;11831;55.918;37.746;2023-05-19T03:28:55;6.00;;;3.72;;
23317;SDS011;11831;55.918;37.746;2023-05-19T03:31:21;6.62;;;4.12;;
23317;SDS011;11831;55.918;37.746;2023-05-19T03:33:48;5.37;;;3.78;;
23317;SDS011;11831;55.918;37.746;2023-05-19T03:36:14;6.90;;;4.28;;
23317;SDS011;11831;55.918;37.746;2023-05-19T03:38:41;5.85;;;4.03;;
23317;SDS011;11831;55.918;37.746;2023-05-19T03:41:07;5.95;;;4.40;;
23317;SDS011;11831;55.918;37.746;2023-05-19T03:43:33;7.25;;;4.45;;
23317;SDS011;11831;55.918;37.746;2023-05-19T03:46:00;8.00;;;3.90;;
23317;SDS011;11831;55.918;37.746;2023-05-19T03:48:27;6.53;;;4.68;;
23317;SDS011;11831;55.918;37.746;2023-05-19T03:51:00;5.30;;;4.35;;
23317;SDS011;11831;55.918;37.746;2023-05-19T03:53:26;7.18;;;5.10;;
23317;SDS011;11831;55.918;37.746;2023-05-19T03:55:55;5.68;;;4.43;;
23317;SDS011;11831;55.918;37.746;2023-05-19T03:58:21;5.57;;;4.45;;
23317;SDS011;11831;55.918;37.746;2023-05-19T04:00:48;8.63;;;5.05;;
23317;SDS011;11831;55.918;37.746;2023-05-19T04:03:15;6.00;;;4.87;;
23317;SDS011;11831;55.918;37.746;2023-05-19T04:05:42;5.80;;;4.68;;
23317;SDS011;11831;55.918;37.746;2023-05-19T04:08:08;6.05;;;5.07;;
23317;SDS011;11831;55.918;37.746;2023-05-19T04:10:34;5.80;;;4.78;;
23317;SDS011;11831;55.918;37.746;2023-05-19T04:13:01;7.72;;;4.78;;
23317;SDS011;11831;55.918;37.746;2023-05-19T04:15:27;6.37;;;4.80;;
23317;SDS011;11831;55.918;37.746;2023-05-19T04:17:54;6.22;;;5.00;;
23317;SDS011;11831;55.918;37.746;2023-05-19T04:20:21;8.07;;;4.35;;
23317;SDS011;11831;55.918;37.746;2023-05-19T04:22:47;6.43;;;5.05;;
23317;SDS011;11831;55.918;37.746;2023-05-19T04:25:14;7.37;;;4.75;;
23317;SDS011;11831;55.918;37.746;2023-05-19T04:27:40;6.65;;;4.60;;
23317;SDS011;11831;55.918;37.746;2023-05-19T04:30:07;6.03;;;4.93;;
23317;SDS011;11831;55.918;37.746;2023-05-19T04:32:34;8.27;;;5.05;;
23317;SDS011;11831;55.918;37.746;2023-05-19T04:35:02;6.37;;;5.00;;
23317;SDS011;11831;55.918;37.746;2023-05-19T04:37:29;7.05;;;5.03;;
23317;SDS011;11831;55.918;37.746;2023-05-19T04:39:56;7.05;;;5.18;;
23317;SDS011;11831;55.918;37.746;2023-05-19T04:42:22;8.18;;;4.78;;
23317;SDS011;11831;55.918;37.746;2023-05-19T04:44:50;8.13;;;5.03;;
23317;SDS011;11831;55.918;37.746;2023-05-19T04:47:17;5.95;;;4.78;;
23317;SDS011;11831;55.918;37.746;2023-05-19T04:49:46;6.60;;;5.37;;
23317;SDS011;11831;55.918;37.746;2023-05-19T04:52:12;9.65;;;5.68;;
23317;SDS011;11831;55.918;37.746;2023-05-19T04:54:38;6.90;;;4.95;;
23317;SDS011;11831;55.918;37.746;2023-05-19T04:57:06;6.68;;;5.45;;
23317;SDS011;11831;55.918;37.746;2023-05-19T04:59:34;7.37;;;5.37;;
23317;SDS011;11831;55.918;37.746;2023-05-19T05:02:01;5.93;;;5.28;;
23317;SDS011;11831;55.918;37.746;2023-05-19T05:04:27;6.90;;;4.72;;
23317;SDS011;11831;55.918;37.746;2023-05-19T05:06:54;8.10;;;5.35;;
23317;SDS011;11831;55.918;37.746;2023-05-19T05:09:20;6.40;;;4.90;;
23317;SDS011;11831;55.918;37.746;2023-05-19T05:11:47;8.20;;;5.47;;
23317;SDS011;11831;55.918;37.746;2023-05-19T05:14:14;6.28;;;5.22;;
23317;SDS011;11831;55.918;37.746;2023-05-19T05:16:41;6.68;;;5.97;;
23317;SDS011;11831;55.918;37.746;2023-05-19T05:19:08;9.52;;;6.00;;
23317;SDS011;11831;55.918;37.746;2023-05-19T05:21:35;7.50;;;6.25;;
23317;SDS011;11831;55.918;37.746;2023-05-19T05:24:01;7.25;;;5.78;;
23317;SDS011;11831;55.918;37.746;2023-05-19T05:26:29;7.57;;;6.18;;
23317;SDS011;11831;55.918;37.746;2023-05-19T05:28:59;6.93;;;5.85;;
23317;SDS011;11831;55.918;37.746;2023-05-19T05:31:25;6.30;;;5.70;;
23317;SDS011;11831;55.918;37.746;2023-05-19T05:33:51;6.60;;;5.75;;
23317;SDS011;11831;55.918;37.746;2023-05-19T05:36:18;7.37;;;6.20;;
23317;SDS011;11831;55.918;37.746;2023-05-19T05:38:44;7.75;;;5.95;;
23317;SDS011;11831;55.918;37.746;2023-05-19T05:41:10;6.22;;;5.62;;
23317;SDS011;11831;55.918;37.746;2023-05-19T05:43:37;6.62;;;6.03;;
23317;SDS011;11831;55.918;37.746;2023-05-19T05:46:03;7.93;;;6.15;;
23317;SDS011;11831;55.918;37.746;2023-05-19T05:48:29;8.02;;;6.45;;
23317;SDS011;11831;55.918;37.746;2023-05-19T05:50:56;9.27;;;6.93;;
23317;SDS011;11831;55.918;37.746;2023-05-19T05:53:24;8.98;;;6.80;;
23317;SDS011;11831;55.918;37.746;2023-05-19T05:55:55;8.13;;;6.73;;
23317;SDS011;11831;55.918;37.746;2023-05-19T05:58:21;8.05;;;6.47;;
23317;SDS011;11831;55.918;37.746;2023-05-19T06:00:49;8.13;;;6.72;;
23317;SDS011;11831;55.918;37.746;2023-05-19T06:03:16;7.78;;;7.05;;
23317;SDS011;11831;55.918;37.746;2023-05-19T06:05:42;7.80;;;6.87;;
23317;SDS011;11831;55.918;37.746;2023-05-19T06:08:08;8.18;;;6.53;;
23317;SDS011;11831;55.918;37.746;2023-05-19T06:10:34;8.40;;;6.85;;
23317;SDS011;11831;55.918;37.746;2023-05-19T06:13:04;8.40;;;6.62;;
23317;SDS011;11831;55.918;37.746;2023-05-19T06:15:30;11.02;;;7.43;;
23317;SDS011;11831;55.918;37.746;2023-05-19T06:17:57;8.93;;;7.05;;
23317;SDS011;11831;55.918;37.746;2023-05-19T06:20:23;8.85;;;7.65;;
23317;SDS011;11831;55.918;37.746;2023-05-19T06:22:49;9.68;;;7.22;;
23317;SDS011;11831;55.918;37.746;2023-05-19T06:25:15;12.05;;;7.53;;
23317;SDS011;11831;55.918;37.746;2023-05-19T06:27:42;9.55;;;7.53;;
23317;SDS011;11831;55.918;37.746;2023-05-19T06:30:09;10.90;;;7.10;;
23317;SDS011;11831;55.918;37.746;2023-05-19T06:32:35;9.00;;;7.57;;
23317;SDS011;11831;55.918;37.746;2023-05-19T06:35:02;8.02;;;7.22;;
23317;SDS011;11831;55.918;37.746;2023-05-19T06:37:29;9.10;;;7.50;;
23317;SDS011;11831;55.918;37.746;2023-05-19T06:39:56;9.30;;;7.60;;
23317;SDS011;11831;55.918;37.746;2023-05-19T06:42:22;10.73;;;7.65;;
23317;SDS011;11831;55.918;37.746;2023-05-19T06:44:50;8.30;;;7.22;;
23317;SDS011;11831;55.918;37.746;2023-05-19T06:47:17;8.23;;;6.97;;
23317;SDS011;11831;55.918;37.746;2023-05-19T06:49:44;9.82;;;8.15;;
23317;SDS011;11831;55.918;37.746;2023-05-19T06:52:11;9.98;;;7.47;;
23317;SDS011;11831;55.918;37.746;2023-05-19T06:54:37;10.48;;;7.32;;
23317;SDS011;11831;55.918;37.746;2023-05-19T06:57:03;8.88;;;7.35;;
23317;SDS011;11831;55.918;37.746;2023-05-19T06:59:30;7.82;;;7.07;;
23317;SDS011;11831;55.918;37.746;2023-05-19T07:01:57;10.07;;;8.27;;
23317;SDS011;11831;55.918;37.746;2023-05-19T07:04:23;9.93;;;8.77;;
23317;SDS011;11831;55.918;37.746;2023-05-19T07:06:50;9.50;;;7.87;;
23317;SDS011;11831;55.918;37.746;2023-05-19T07:09:17;9.52;;;7.82;;
23317;SDS011;11831;55.918;37.746;2023-05-19T07:11:43;10.73;;;8.10;;
23317;SDS011;11831;55.918;37.746;2023-05-19T07:14:10;8.77;;;7.85;;
23317;SDS011;11831;55.918;37.746;2023-05-19T07:16:36;8.70;;;6.75;;
23317;SDS011;11831;55.918;37.746;2023-05-19T07:19:02;9.43;;;6.65;;
23317;SDS011;11831;55.918;37.746;2023-05-19T07:21:29;9.18;;;6.65;;
23317;SDS011;11831;55.918;37.746;2023-05-19T07:23:55;9.82;;;6.87;;
23317;SDS011;11831;55.918;37.746;2023-05-19T07:26:22;7.72;;;6.43;;
23317;SDS011;11831;55.918;37.746;2023-05-19T07:28:48;8.73;;;5.68;;
23317;SDS011;11831;55.918;37.746;2023-05-19T07:31:16;12.35;;;5.53;;
23317;SDS011;11831;55.918;37.746;2023-05-19T07:33:43;11.35;;;5.78;;
23317;SDS011;11831;55.918;37.746;2023-05-19T07:36:09;7.03;;;5.65;;
23317;SDS011;11831;55.918;37.746;2023-05-19T07:38:35;7.95;;;4.90;;
23317;SDS011;11831;55.918;37.746;2023-05-19T07:41:02;9.90;;;5.25;;
23317;SDS011;11831;55.918;37.746;2023-05-19T07:43:28;8.50;;;4.10;;
23317;SDS011;11831;55.918;37.746;2023-05-19T07:45:55;4.05;;;3.65;;
23317;SDS011;11831;55.918;37.746;2023-05-19T07:48:21;3.92;;;2.90;;
23317;SDS011;11831;55.918;37.746;2023-05-19T07:50:50;6.75;;;3.83;;
23317;SDS011;11831;55.918;37.746;2023-05-19T07:53:18;7.72;;;3.10;;
23317;SDS011;11831;55.918;37.746;2023-05-19T07:55:45;5.87;;;2.85;;
23317;SDS011;11831;55.918;37.746;2023-05-19T07:58:11;10.68;;;4.47;;
23317;SDS011;11831;55.918;37.746;2023-05-19T08:00:38;5.53;;;3.50;;
23317;SDS011;11831;55.918;37.746;2023-05-19T08:03:05;6.53;;;4.62;;
23317;SDS011;11831;55.918;37.746;2023-05-19T08:05:33;6.47;;;3.90;;
23317;SDS011;11831;55.918;37.746;2023-05-19T08:08:01;4.45;;;3.37;;
23317;SDS011;11831;55.918;37.746;2023-05-19T08:10:27;5.72;;;3.35;;
23317;SDS011;11831;55.918;37.746;2023-05-19T08:12:54;7.50;;;4.30;;
23317;SDS011;11831;55.918;37.746;2023-05-19T08:15:20;6.87;;;4.30;;
23317;SDS011;11831;55.918;37.746;2023-05-19T08:17:47;6.97;;;3.83;;
23317;SDS011;11831;55.918;37.746;2023-05-19T08:20:13;6.90;;;4.28;;
23317;SDS011;11831;55.918;37.746;2023-05-19T08:22:39;6.20;;;3.28;;
23317;SDS011;11831;55.918;37.746;2023-05-19T08:25:05;6.18;;;3.47;;
23317;SDS011;11831;55.918;37.746;2023-05-19T08:27:32;4.30;;;3.62;;
23317;SDS011;11831;55.918;37.746;2023-05-19T08:29:58;7.87;;;4.00;;
23317;SDS011;11831;55.918;37.746;2023-05-19T08:32:24;7.68;;;4.12;;
23317;SDS011;11831;55.918;37.746;2023-05-19T08:34:51;8.25;;;4.45;;
23317;SDS011;11831;55.918;37.746;2023-05-19T08:37:17;4.25;;;3.15;;
23317;SDS011;11831;55.918;37.746;2023-05-19T08:39:43;8.95;;;3.90;;
23317;SDS011;11831;55.918;37.746;2023-05-19T08:42:10;3.12;;;2.47;;
23317;SDS011;11831;55.918;37.746;2023-05-19T08:44:37;6.03;;;3.15;;
23317;SDS011;11831;55.918;37.746;2023-05-19T08:47:04;4.60;;;2.55;;
23317;SDS011;11831;55.918;37.746;2023-05-19T08:49:40;4.62;;;2.83;;
23317;SDS011;11831;55.918;37.746;2023-05-19T08:54:56;7.82;;;2.40;;
23317;SDS011;11831;55.918;37.746;2023-05-19T08:57:29;3.85;;;2.25;;
23317;SDS011;11831;55.918;37.746;2023-05-19T09:00:03;4.43;;;2.22;;
23317;SDS011;11831;55.918;37.746;2023-05-19T09:02:42;4.30;;;2.95;;
23317;SDS011;11831;55.918;37.746;2023-05-19T09:05:10;4.18;;;2.40;;
23317;SDS011;11831;55.918;37.746;2023-05-19T09:07:37;3.45;;;2.45;;
23317;SDS011;11831;55.918;37.746;2023-05-19T09:10:04;6.55;;;2.60;;
23317;SDS011;11831;55.918;37.746;2023-05-19T09:12:31;2.85;;;2.22;;
23317;SDS011;11831;55.918;37.746;2023-05-19T09:14:58;3.92;;;2.60;;
23317;SDS011;11831;55.918;37.746;2023-05-19T09:17:26;5.40;;;2.53;;
23317;SDS011;11831;55.918;37.746;2023-05-19T09:19:52;4.62;;;2.53;;
23317;SDS011;11831;55.918;37.746;2023-05-19T09:22:18;3.67;;;1.90;;
23317;SDS011;11831;55.918;37.746;2023-05-19T09:24:45;2.05;;;1.60;;
23317;SDS011;11831;55.918;37.746;2023-05-19T09:27:13;4.00;;;2.00;;
23317;SDS011;11831;55.918;37.746;2023-05-19T09:29:47;3.42;;;2.10;;
23317;SDS011;11831;55.918;37.746;2023-05-19T09:32:13;3.20;;;1.95;;
23317;SDS011;11831;55.918;37.746;2023-05-19T09:34:49;3.47;;;2.03;;
23317;SDS011;11831;55.918;37.746;2023-05-19T09:37:16;5.47;;;3.35;;
23317;SDS011;11831;55.918;37.746;2023-05-19T09:39:43;3.50;;;2.90;;
23317;SDS011;11831;55.918;37.746;2023-05-19T09:42:14;3.83;;;2.28;;
23317;SDS011;11831;55.918;37.746;2023-05-19T09:44:41;2.72;;;2.10;;
23317;SDS011;11831;55.918;37.746;2023-05-19T09:47:08;3.00;;;1.80;;
23317;SDS011;11831;55.918;37.746;2023-05-19T09:49:35;3.97;;;2.12;;
23317;SDS011;11831;55.918;37.746;2023-05-19T09:52:03;2.42;;;1.80;;
23317;SDS011;11831;55.918;37.746;2023-05-19T09:54:30;5.68;;;2.42;;
23317;SDS011;11831;55.918;37.746;2023-05-19T09:56:59;6.30;;;2.10;;
23317;SDS011;11831;55.918;37.746;2023-05-19T09:59:27;3.45;;;2.62;;
23317;SDS011;11831;55.918;37.746;2023-05-19T10:01:55;4.60;;;2.17;;
23317;SDS011;11831;55.918;37.746;2023-05-19T10:04:23;3.42;;;1.87;;
23317;SDS011;11831;55.918;37.746;2023-05-19T10:06:55;7.82;;;3.87;;
23317;SDS011;11831;55.918;37.746;2023-05-19T10:09:25;3.92;;;2.35;;
23317;SDS011;11831;55.918;37.746;2023-05-19T10:11:53;2.87;;;2.22;;
23317;SDS011;11831;55.918;37.746;2023-05-19T10:14:22;4.20;;;2.15;;
23317;SDS011;11831;55.918;37.746;2023-05-19T10:16:50;3.78;;;1.60;;
23317;SDS011;11831;55.918;37.746;2023-05-19T10:19:21;4.95;;;1.98;;
23317;SDS011;11831;55.918;37.746;2023-05-19T10:21:51;3.70;;;1.70;;
23317;SDS011;11831;55.918;37.746;2023-05-19T10:24:18;7.75;;;1.60;;
23317;SDS011;11831;55.918;37.746;2023-05-19T10:26:52;4.60;;;2.25;;
23317;SDS011;11831;55.918;37.746;2023-05-19T10:29:26;6.03;;;1.70;;
23317;SDS011;11831;55.918;37.746;2023-05-19T10:31:58;2.55;;;2.10;;
23317;SDS011;11831;55.918;37.746;2023-05-19T10:34:53;4.90;;;2.35;;
23317;SDS011;11831;55.918;37.746;2023-05-19T10:40:56;6.78;;;1.92;;
23317;SDS011;11831;55.918;37.746;2023-05-19T10:46:28;4.10;;;2.28;;
23317;SDS011;11831;55.918;37.746;2023-05-19T10:48:55;3.00;;;2.58;;
23317;SDS011;11831;55.918;37.746;2023-05-19T10:51:29;6.80;;;1.87;;
23317;SDS011;11831;55.918;37.746;2023-05-19T10:53:56;4.82;;;1.70;;
23317;SDS011;11831;55.918;37.746;2023-05-19T10:56:27;7.37;;;2.37;;
23317;SDS011;11831;55.918;37.746;2023-05-19T10:59:05;4.35;;;2.12;;
23317;SDS011;11831;55.918;37.746;2023-05-19T11:01:32;2.20;;;1.95;;
23317;SDS011;11831;55.918;37.746;2023-05-19T11:04:17;3.28;;;2.30;;
23317;SDS011;11831;55.918;37.746;2023-05-19T11:06:49;2.42;;;1.77;;
23317;SDS011;11831;55.918;37.746;2023-05-19T11:09:17;4.32;;;2.40;;
23317;SDS011;11831;55.918;37.746;2023-05-19T11:11:45;3.75;;;2.12;;
23317;SDS011;11831;55.918;37.746;2023-05-19T11:14:14;3.33;;;2.40;;
23317;SDS011;11831;55.918;37.746;2023-05-19T11:16:52;5.35;;;2.53;;
23317;SDS011;11831;55.918;37.746;2023-05-19T11:19:28;5.65;;;3.95;;
23317;SDS011;11831;55.918;37.746;2023-05-19T11:21:57;4.68;;;2.35;;
23317;SDS011;11831;55.918;37.746;2023-05-19T11:24:37;4.55;;;3.05;;
23317;SDS011;11831;55.918;37.746;2023-05-19T11:30:06;3.08;;;2.78;;
23317;SDS011;11831;55.918;37.746;2023-05-19T11:32:40;3.83;;;3.03;;
23317;SDS011;11831;55.918;37.746;2023-05-19T11:35:09;5.45;;;2.80;;
23317;SDS011;11831;55.918;37.746;2023-05-19T11:37:36;4.87;;;3.72;;
23317;SDS011;11831;55.918;37.746;2023-05-19T11:40:03;5.55;;;1.92;;
23317;SDS011;11831;55.918;37.746;2023-05-19T11:42:32;5.18;;;2.60;;
23317;SDS011;11831;55.918;37.746;2023-05-19T11:45:00;2.60;;;1.40;;
23317;SDS011;11831;55.918;37.746;2023-05-19T11:47:30;3.15;;;2.42;;
23317;SDS011;11831;55.918;37.746;2023-05-19T11:49:57;3.65;;;2.60;;
23317;SDS011;11831;55.918;37.746;2023-05-19T11:52:25;5.28;;;2.62;;
23317;SDS011;11831;55.918;37.746;2023-05-19T11:54:58;3.10;;;2.05;;
23317;SDS011;11831;55.918;37.746;2023-05-19T11:59:52;5.62;;;2.50;;
23317;SDS011;11831;55.918;37.746;2023-05-19T12:02:22;3.30;;;2.78;;
23317;SDS011;11831;55.918;37.746;2023-05-19T12:04:50;4.35;;;2.78;;
23317;SDS011;11831;55.918;37.746;2023-05-19T12:07:17;2.35;;;1.60;;
23317;SDS011;11831;55.918;37.746;2023-05-19T12:09:45;5.85;;;2.20;;
23317;SDS011;11831;55.918;37.746;2023-05-19T12:12:13;3.55;;;1.95;;
23317;SDS011;11831;55.918;37.746;2023-05-19T12:14:42;2.45;;;1.85;;
23317;SDS011;11831;55.918;37.746;2023-05-19T12:17:10;2.80;;;1.80;;
23317;SDS011;11831;55.918;37.746;2023-05-19T12:19:45;4.53;;;1.90;;
23317;SDS011;11831;55.918;37.746;2023-05-19T12:22:13;2.33;;;1.40;;
23317;SDS011;11831;55.918;37.746;2023-05-19T12:24:41;3.47;;;2.08;;
23317;SDS011;11831;55.918;37.746;2023-05-19T12:27:18;4.45;;;1.90;;
23317;SDS011;11831;55.918;37.746;2023-05-19T12:29:52;3.37;;;1.83;;
23317;SDS011;11831;55.918;37.746;2023-05-19T12:32:23;3.65;;;1.80;;
23317;SDS011;11831;55.918;37.746;2023-05-19T12:34:50;4.07;;;1.58;;
23317;SDS011;11831;55.918;37.746;2023-05-19T12:37:17;3.72;;;1.77;;
23317;SDS011;11831;55.918;37.746;2023-05-19T12:39:44;4.20;;;1.52;;
23317;SDS011;11831;55.918;37.746;2023-05-19T12:42:11;5.82;;;1.75;;
23317;SDS011;11831;55.918;37.746;2023-05-19T12:44:38;3.17;;;1.52;;
23317;SDS011;11831;55.918;37.746;2023-05-19T12:47:11;3.12;;;2.17;;
23317;SDS011;11831;55.918;37.746;2023-05-19T12:52:24;3.50;;;2.03;;
23317;SDS011;11831;55.918;37.746;2023-05-19T12:55:00;4.15;;;1.73;;
23317;SDS011;11831;55.918;37.746;2023-05-19T12:57:30;2.70;;;1.58;;
23317;SDS011;11831;55.918;37.746;2023-05-19T13:02:53;4.12;;;1.50;;
23317;SDS011;11831;55.918;37.746;2023-05-19T13:05:28;3.65;;;2.00;;
23317;SDS011;11831;55.918;37.746;2023-05-19T13:07:56;2.20;;;1.90;;
23317;SDS011;11831;55.918;37.746;2023-05-19T13:10:24;5.20;;;1.60;;
23317;SDS011;11831;55.918;37.746;2023-05-19T13:12:54;5.53;;;1.60;;
23317;SDS011;11831;55.918;37.746;2023-05-19T13:15:21;2.65;;;2.33;;
23317;SDS011;11831;55.918;37.746;2023-05-19T13:17:49;2.80;;;1.62;;
23317;SDS011;11831;55.918;37.746;2023-05-19T13:20:16;3.95;;;1.90;;
23317;SDS011;11831;55.918;37.746;2023-05-19T13:22:43;3.42;;;1.77;;
23317;SDS011;11831;55.918;37.746;2023-05-19T13:25:10;4.87;;;1.60;;
23317;SDS011;11831;55.918;37.746;2023-05-19T13:27:36;2.58;;;1.52;;
23317;SDS011;11831;55.918;37.746;2023-05-19T13:30:03;2.92;;;1.48;;
23317;SDS011;11831;55.918;37.746;2023-05-19T13:32:31;4.15;;;1.70;;
23317;SDS011;11831;55.918;37.746;2023-05-19T13:34:59;2.22;;;1.62;;
23317;SDS011;11831;55.918;37.746;2023-05-19T13:37:26;3.80;;;1.80;;
23317;SDS011;11831;55.918;37.746;2023-05-19T13:39:53;3.30;;;1.58;;
23317;SDS011;11831;55.918;37.746;2023-05-19T13:42:19;5.20;;;1.80;;
23317;SDS011;11831;55.918;37.746;2023-05-19T13:44:46;2.85;;;1.58;;
23317;SDS011;11831;55.918;37.746;2023-05-19T13:47:12;6.20;;;1.90;;
23317;SDS011;11831;55.918;37.746;2023-05-19T13:49:39;5.30;;;1.73;;
23317;SDS011;11831;55.918;37.746;2023-05-19T13:52:06;2.17;;;1.45;;
23317;SDS011;11831;55.918;37.746;2023-05-19T13:54:33;6.05;;;2.12;;
23317;SDS011;11831;55.918;37.746;2023-05-19T13:56:59;3.22;;;1.85;;
23317;SDS011;11831;55.918;37.746;2023-05-19T13:59:26;2.40;;;1.70;;
23317;SDS011;11831;55.918;37.746;2023-05-19T14:01:53;3.42;;;1.60;;
23317;SDS011;11831;55.918;37.746;2023-05-19T14:04:19;5.12;;;2.95;;
23317;SDS011;11831;55.918;37.746;2023-05-19T14:06:46;5.45;;;1.67;;
23317;SDS011;11831;55.918;37.746;2023-05-19T14:09:12;4.80;;;1.95;;
23317;SDS011;11831;55.918;37.746;2023-05-19T14:11:39;6.55;;;1.75;;
23317;SDS011;11831;55.918;37.746;2023-05-19T14:14:05;6.82;;;1.83;;
23317;SDS011;11831;55.918;37.746;2023-05-19T14:16:32;3.90;;;1.50;;
23317;SDS011;11831;55.918;37.746;2023-05-19T14:18:58;3.50;;;1.48;;
23317;SDS011;11831;55.918;37.746;2023-05-19T14:21:25;3.30;;;1.20;;
23317;SDS011;11831;55.918;37.746;2023-05-19T14:23:51;4.12;;;1.77;;
23317;SDS011;11831;55.918;37.746;2023-05-19T14:26:18;4.37;;;1.58;;
23317;SDS011;11831;55.918;37.746;2023-05-19T14:28:44;4.78;;;1.60;;
23317;SDS011;11831;55.918;37.746;2023-05-19T14:31:11;3.15;;;1.40;;
23317;SDS011;11831;55.918;37.746;2023-05-19T14:33:38;4.03;;;1.60;;
23317;SDS011;11831;55.918;37.746;2023-05-19T14:36:06;3.80;;;1.70;;
23317;SDS011;11831;55.918;37.746;2023-05-19T14:38:32;3.25;;;1.75;;
23317;SDS011;11831;55.918;37.746;2023-05-19T14:40:59;2.17;;;1.30;;
23317;SDS011;11831;55.918;37.746;2023-05-19T14:43:25;2.30;;;1.60;;
23317;SDS011;11831;55.918;37.746;2023-05-19T14:45:52;5.50;;;1.60;;
23317;SDS011;11831;55.918;37.746;2023-05-19T14:48:18;1.70;;;1.40;;
23317;SDS011;11831;55.918;37.746;2023-05-19T14:50:45;5.25;;;1.50;;
23317;SDS011;11831;55.918;37.746;2023-05-19T14:53:15;1.42;;;1.15;;
23317;SDS011;11831;55.918;37.746;2023-05-19T14:55:42;2.40;;;1.37;;
23317;SDS011;11831;55.918;37.746;2023-05-19T14:58:08;2.15;;;1.30;;
23317;SDS011;11831;55.918;37.746;2023-05-19T15:00:35;3.42;;;1.27;;
23317;SDS011;11831;55.918;37.746;2023-05-19T15:03:01;5.47;;;1.50;;
23317;SDS011;11831;55.918;37.746;2023-05-19T15:05:27;4.45;;;1.77;;
23317;SDS011;11831;55.918;37.746;2023-05-19T15:07:54;4.75;;;1.60;;
23317;SDS011;11831;55.918;37.746;2023-05-19T15:10:20;4.40;;;1.23;;
23317;SDS011;11831;55.918;37.746;2023-05-19T15:12:47;4.22;;;1.48;;